Elburz, Nevada
Current Conditions -  °F | °C
As of 7:56 PM on Sunday 23 Nov 2014 (Local Time) from KEKO Reporting Station
Clear Clear  
Wind Chill: 29°   Ceiling: Unl
Heat Index: 29°   Visibility: 10mi
Dew Point: 23°   Wind: 0mph
Humidity: 78%   Direction: NA
Pressure: 30.28"   Gusts: NA
Location:  40.9295°N, 115.504°W
Report Text: KEKO 240356Z AUTO 00000KT 10SM CLR M02/M05 A3028 RMK AO2 SLP278 T10171050
Loading
Personal Weather Stations






























Interactive Weather Map New forecast layout! Learn more

10-Day Weather Forecast

Advertisements
Track Severe Weather on mobile